Monahans, TX

10:44 AM CDT on May 29, 2015 (GMT -0500)
Fort Stockton-Pecos County | | Change Station
CLOSE
Current Station
Airport
Location: Fort Stockton,
Elevation: 3009 ft
Nearby Weather Stations

Elev 3009 ft 30.91 °N, 102.92 °W | Updated 51 minutes ago

Clear
Clear
68 °F
Feels Like 68 °F
N
4
Wind Variable Wind from WNW

Today
High -- | Low -- °F
--% Chance of Precip.
Yesterday
High -- | Low -- °F
Precip. -- in
6:48 AM 8:50 PM
Waxing Gibbous, 84% visible
Pressure 29.89 in
Visibility 10.0 miles
Clouds Clear
Dew Point 60 °F
Humidity 76%
Rainfall 0.00 in
Snow Depth Not available.
UV 5 out of 12
Pollen 5.10 out of 12
Air Quality Not available.
Flu Activity Sporadic
METAR KFST 291453Z AUTO 30003KT 10SM CLR 20/16 A3000 RMK AO2 SLP120 T02000156 51018 $

More Conditions Fewer Conditions

Pressure 29.89 in
Visibility 10.0 miles
Clouds Clear
Dew Point 60 °F
Humidity 76%
Rainfall 0.00 in
Snow Depth Not available.
UV 5 out of 12
Pollen 5.10 out of 12
Air Quality Not available.
Flu Activity Sporadic
METAR KFST 291453Z AUTO 30003KT 10SM CLR 20/16 A3000 RMK AO2 SLP120 T02000156 51018 $

More Conditions Fewer Conditions

10-Day Weather Forecast

Almanac

Astronomy

May. 29, 2015 Rise Set
Actual Time
Civil Twilight
Nautical Twilight
Astronomical Twilight
Moon
Length of Visible Light
Length of Day
Tomorrow will be .
, % of the Moon is Illuminated

Today's Extremes

State Highs State Lows

Community

WunderPhotos

Upload Photos

1,825,294 photos uploaded!

WunderBlogs® & News

Nearby

Air Quality

  Air Quality AQ Index Pollutant
Not available.

Snow Depth

Station Depth Elevation

Earthquake Activity

City Distance Mag. Time & Date
Minimum magnitude displayed is 2.5.

Coastal Water Temperatures

Place Temperature

Stations

Nearby Weather Stations

Station Location Temp. Windchill Dew Point Humidity Wind Precip. Elev Updated Type